sensor_id;sensor_type;location;lat;lon;timestamp;pressure;altitude;pressure_sealevel;temperature;humidity
21153;BME280;10734;44.792;20.482;2022-11-12T00:00:51;60643.78;;;-146.09;100.00
21153;BME280;10734;44.792;20.482;2022-11-12T00:03:18;60643.78;;;-146.09;100.00
21153;BME280;10734;44.792;20.482;2022-11-12T00:05:45;60643.78;;;-146.09;100.00
21153;BME280;10734;44.792;20.482;2022-11-12T00:08:12;60643.78;;;-146.09;100.00
21153;BME280;10734;44.792;20.482;2022-11-12T00:10:39;60643.78;;;-146.09;100.00
21153;BME280;10734;44.792;20.482;2022-11-12T00:13:06;60643.78;;;-146.09;100.00
21153;BME280;10734;44.792;20.482;2022-11-12T00:15:32;60643.78;;;-146.09;100.00
21153;BME280;10734;44.792;20.482;2022-11-12T00:17:59;60643.78;;;-146.09;100.00
21153;BME280;10734;44.792;20.482;2022-11-12T00:20:26;60643.78;;;-146.09;100.00
21153;BME280;10734;44.792;20.482;2022-11-12T00:22:52;60643.78;;;-146.09;100.00
21153;BME280;10734;44.792;20.482;2022-11-12T00:25:20;60643.78;;;-146.09;100.00
21153;BME280;10734;44.792;20.482;2022-11-12T00:27:47;60643.78;;;-146.09;100.00
21153;BME280;10734;44.792;20.482;2022-11-12T00:30:14;60643.78;;;-146.09;100.00
21153;BME280;10734;44.792;20.482;2022-11-12T00:32:40;60643.78;;;-146.09;100.00
21153;BME280;10734;44.792;20.482;2022-11-12T00:35:07;60643.78;;;-146.09;100.00
21153;BME280;10734;44.792;20.482;2022-11-12T00:37:39;60643.78;;;-146.09;100.00
21153;BME280;10734;44.792;20.482;2022-11-12T00:40:06;60643.78;;;-146.09;100.00
21153;BME280;10734;44.792;20.482;2022-11-12T00:42:33;60643.78;;;-146.09;100.00
21153;BME280;10734;44.792;20.482;2022-11-12T00:45:00;60643.78;;;-146.09;100.00
21153;BME280;10734;44.792;20.482;2022-11-12T00:47:26;60643.78;;;-146.09;100.00
21153;BME280;10734;44.792;20.482;2022-11-12T00:49:53;60643.78;;;-146.09;100.00
21153;BME280;10734;44.792;20.482;2022-11-12T00:52:19;60643.78;;;-146.09;100.00
21153;BME280;10734;44.792;20.482;2022-11-12T00:54:46;60643.78;;;-146.09;100.00
21153;BME280;10734;44.792;20.482;2022-11-12T00:57:13;60643.78;;;-146.09;100.00
21153;BME280;10734;44.792;20.482;2022-11-12T00:59:40;60643.78;;;-146.09;100.00
21153;BME280;10734;44.792;20.482;2022-11-12T01:02:06;60643.78;;;-146.09;100.00
21153;BME280;10734;44.792;20.482;2022-11-12T01:04:33;60643.78;;;-146.09;100.00
21153;BME280;10734;44.792;20.482;2022-11-12T01:07:00;60643.78;;;-146.09;100.00
21153;BME280;10734;44.792;20.482;2022-11-12T01:09:26;60643.78;;;-146.09;100.00
21153;BME280;10734;44.792;20.482;2022-11-12T01:11:53;60643.78;;;-146.09;100.00
21153;BME280;10734;44.792;20.482;2022-11-12T01:14:20;60643.78;;;-146.09;100.00
21153;BME280;10734;44.792;20.482;2022-11-12T01:16:47;60643.78;;;-146.09;100.00
21153;BME280;10734;44.792;20.482;2022-11-12T01:19:13;60643.78;;;-146.09;100.00
21153;BME280;10734;44.792;20.482;2022-11-12T01:21:42;60643.78;;;-146.09;100.00
21153;BME280;10734;44.792;20.482;2022-11-12T01:24:09;60643.78;;;-146.09;100.00
21153;BME280;10734;44.792;20.482;2022-11-12T01:26:37;60643.78;;;-146.09;100.00
21153;BME280;10734;44.792;20.482;2022-11-12T01:29:04;60643.78;;;-146.09;100.00
21153;BME280;10734;44.792;20.482;2022-11-12T01:31:33;60643.78;;;-146.09;100.00
21153;BME280;10734;44.792;20.482;2022-11-12T01:34:03;60643.78;;;-146.09;100.00
21153;BME280;10734;44.792;20.482;2022-11-12T01:36:34;60643.78;;;-146.09;100.00
21153;BME280;10734;44.792;20.482;2022-11-12T01:39:06;60643.78;;;-146.09;100.00
21153;BME280;10734;44.792;20.482;2022-11-12T01:41:36;60643.78;;;-146.09;100.00
21153;BME280;10734;44.792;20.482;2022-11-12T01:44:21;60643.78;;;-146.09;100.00
21153;BME280;10734;44.792;20.482;2022-11-12T01:49:27;60643.78;;;-146.09;100.00
21153;BME280;10734;44.792;20.482;2022-11-12T01:52:08;60643.78;;;-146.09;100.00
21153;BME280;10734;44.792;20.482;2022-11-12T01:54:36;60643.78;;;-146.09;100.00
21153;BME280;10734;44.792;20.482;2022-11-12T01:57:03;60643.78;;;-146.09;100.00
21153;BME280;10734;44.792;20.482;2022-11-12T01:59:37;60643.78;;;-146.09;100.00
21153;BME280;10734;44.792;20.482;2022-11-12T02:02:05;60643.78;;;-146.09;100.00
21153;BME280;10734;44.792;20.482;2022-11-12T02:04:33;60643.78;;;-146.09;100.00
21153;BME280;10734;44.792;20.482;2022-11-12T02:07:02;60643.78;;;-146.09;100.00
21153;BME280;10734;44.792;20.482;2022-11-12T02:09:29;60643.78;;;-146.09;100.00
21153;BME280;10734;44.792;20.482;2022-11-12T02:11:58;60643.78;;;-146.09;100.00
21153;BME280;10734;44.792;20.482;2022-11-12T02:14:25;60643.78;;;-146.09;100.00
21153;BME280;10734;44.792;20.482;2022-11-12T02:16:52;60643.78;;;-146.09;100.00
21153;BME280;10734;44.792;20.482;2022-11-12T02:19:19;60643.78;;;-146.09;100.00
21153;BME280;10734;44.792;20.482;2022-11-12T02:21:46;60643.78;;;-146.09;100.00
21153;BME280;10734;44.792;20.482;2022-11-12T02:26:43;60643.78;;;-146.09;100.00
21153;BME280;10734;44.792;20.482;2022-11-12T02:29:11;60643.78;;;-146.09;100.00
21153;BME280;10734;44.792;20.482;2022-11-12T02:31:38;60643.78;;;-146.09;100.00
21153;BME280;10734;44.792;20.482;2022-11-12T02:34:04;60643.78;;;-146.09;100.00
21153;BME280;10734;44.792;20.482;2022-11-12T02:36:31;60643.78;;;-146.09;100.00
21153;BME280;10734;44.792;20.482;2022-11-12T02:38:57;60643.78;;;-146.09;100.00
21153;BME280;10734;44.792;20.482;2022-11-12T02:41:24;60643.78;;;-146.09;100.00
21153;BME280;10734;44.792;20.482;2022-11-12T02:43:51;60643.78;;;-146.09;100.00
21153;BME280;10734;44.792;20.482;2022-11-12T02:46:17;60643.78;;;-146.09;100.00
21153;BME280;10734;44.792;20.482;2022-11-12T02:48:44;60643.78;;;-146.09;100.00
21153;BME280;10734;44.792;20.482;2022-11-12T02:51:11;60643.78;;;-146.09;100.00
21153;BME280;10734;44.792;20.482;2022-11-12T02:53:37;60643.78;;;-146.09;100.00
21153;BME280;10734;44.792;20.482;2022-11-12T02:56:04;60643.78;;;-146.09;100.00
21153;BME280;10734;44.792;20.482;2022-11-12T02:58:31;60643.78;;;-146.09;100.00
21153;BME280;10734;44.792;20.482;2022-11-12T03:00:57;60643.78;;;-146.09;100.00
21153;BME280;10734;44.792;20.482;2022-11-12T03:03:24;60643.78;;;-146.09;100.00
21153;BME280;10734;44.792;20.482;2022-11-12T03:05:56;60643.78;;;-146.09;100.00
21153;BME280;10734;44.792;20.482;2022-11-12T03:08:24;60643.78;;;-146.09;100.00
21153;BME280;10734;44.792;20.482;2022-11-12T03:10:51;60643.78;;;-146.09;100.00
21153;BME280;10734;44.792;20.482;2022-11-12T03:13:19;60643.78;;;-146.09;100.00
21153;BME280;10734;44.792;20.482;2022-11-12T03:15:46;60643.78;;;-146.09;100.00
21153;BME280;10734;44.792;20.482;2022-11-12T03:18:13;60643.78;;;-146.09;100.00
21153;BME280;10734;44.792;20.482;2022-11-12T03:20:40;60643.78;;;-146.09;100.00
21153;BME280;10734;44.792;20.482;2022-11-12T03:23:09;60643.78;;;-146.09;100.00
21153;BME280;10734;44.792;20.482;2022-11-12T03:25:36;60643.78;;;-146.09;100.00
21153;BME280;10734;44.792;20.482;2022-11-12T03:28:09;60643.78;;;-146.09;100.00
21153;BME280;10734;44.792;20.482;2022-11-12T03:30:38;60643.78;;;-146.09;100.00
21153;BME280;10734;44.792;20.482;2022-11-12T03:33:05;60643.78;;;-146.09;100.00
21153;BME280;10734;44.792;20.482;2022-11-12T03:35:32;60643.78;;;-146.09;100.00
21153;BME280;10734;44.792;20.482;2022-11-12T03:38:00;60643.78;;;-146.09;100.00
21153;BME280;10734;44.792;20.482;2022-11-12T03:40:27;60643.78;;;-146.09;100.00
21153;BME280;10734;44.792;20.482;2022-11-12T07:27:31;101582.31;;;10.15;nan
21153;BME280;10734;44.792;20.482;2022-11-12T07:29:58;101578.47;;;10.53;nan
21153;BME280;10734;44.792;20.482;2022-11-12T07:32:25;101577.34;;;10.60;nan
21153;BME280;10734;44.792;20.482;2022-11-12T07:34:51;101571.09;;;10.86;nan
21153;BME280;10734;44.792;20.482;2022-11-12T07:37:18;101576.19;;;10.96;nan
21153;BME280;10734;44.792;20.482;2022-11-12T07:39:45;101578.91;;;11.21;nan
21153;BME280;10734;44.792;20.482;2022-11-12T07:42:11;101583.19;;;11.28;nan
21153;BME280;10734;44.792;20.482;2022-11-12T07:44:38;101583.47;;;11.45;nan
21153;BME280;10734;44.792;20.482;2022-11-12T07:47:05;101580.41;;;11.79;nan
21153;BME280;10734;44.792;20.482;2022-11-12T07:49:31;101584.50;;;11.66;nan
21153;BME280;10734;44.792;20.482;2022-11-12T07:51:58;101594.91;;;11.77;nan
21153;BME280;10734;44.792;20.482;2022-11-12T07:54:25;101592.19;;;11.77;nan
21153;BME280;10734;44.792;20.482;2022-11-12T07:56:51;101592.97;;;11.80;nan
21153;BME280;10734;44.792;20.482;2022-11-12T07:59:18;101600.94;;;12.08;nan
21153;BME280;10734;44.792;20.482;2022-11-12T08:01:44;101594.72;;;12.53;nan
21153;BME280;10734;44.792;20.482;2022-11-12T08:04:11;101598.16;;;12.57;nan
21153;BME280;10734;44.792;20.482;2022-11-12T08:06:39;101603.91;;;12.71;nan
21153;BME280;10734;44.792;20.482;2022-11-12T08:09:07;101608.53;;;12.68;nan
21153;BME280;10734;44.792;20.482;2022-11-12T08:11:33;101610.53;;;12.63;nan
21153;BME280;10734;44.792;20.482;2022-11-12T08:14:00;101608.09;;;12.78;nan
21153;BME280;10734;44.792;20.482;2022-11-12T08:16:28;101600.28;;;13.15;nan
21153;BME280;10734;44.792;20.482;2022-11-12T08:18:55;101598.09;;;13.45;nan
21153;BME280;10734;44.792;20.482;2022-11-12T08:21:21;101597.56;;;13.37;nan
21153;BME280;10734;44.792;20.482;2022-11-12T08:23:48;101591.44;;;13.11;nan
21153;BME280;10734;44.792;20.482;2022-11-12T08:26:17;101585.88;;;13.14;nan
21153;BME280;10734;44.792;20.482;2022-11-12T08:28:44;101590.47;;;13.34;nan
21153;BME280;10734;44.792;20.482;2022-11-12T08:31:12;101594.66;;;13.41;nan
21153;BME280;10734;44.792;20.482;2022-11-12T08:33:39;101596.03;;;14.11;nan
21153;BME280;10734;44.792;20.482;2022-11-12T08:36:07;101596.16;;;14.08;nan
21153;BME280;10734;44.792;20.482;2022-11-12T08:38:36;101592.97;;;14.38;nan
21153;BME280;10734;44.792;20.482;2022-11-12T08:41:08;101596.78;;;15.08;nan
21153;BME280;10734;44.792;20.482;2022-11-12T08:43:36;101594.69;;;15.67;nan
21153;BME280;10734;44.792;20.482;2022-11-12T08:46:03;101594.28;;;15.74;nan
21153;BME280;10734;44.792;20.482;2022-11-12T08:48:30;101591.66;;;15.73;nan
21153;BME280;10734;44.792;20.482;2022-11-12T08:51:00;101599.53;;;15.43;nan
21153;BME280;10734;44.792;20.482;2022-11-12T08:53:27;101598.25;;;15.84;nan
21153;BME280;10734;44.792;20.482;2022-11-12T08:55:55;101600.50;;;16.59;nan
21153;BME280;10734;44.792;20.482;2022-11-12T08:58:23;101600.31;;;16.62;nan
21153;BME280;10734;44.792;20.482;2022-11-12T09:00:51;101599.00;;;16.85;nan
21153;BME280;10734;44.792;20.482;2022-11-12T09:03:20;101605.50;;;16.66;nan
21153;BME280;10734;44.792;20.482;2022-11-12T09:05:47;101600.44;;;16.27;nan
21153;BME280;10734;44.792;20.482;2022-11-12T09:08:20;101604.72;;;16.80;nan
21153;BME280;10734;44.792;20.482;2022-11-12T09:10:48;101594.91;;;16.93;nan
21153;BME280;10734;44.792;20.482;2022-11-12T09:13:15;101594.59;;;17.14;nan
21153;BME280;10734;44.792;20.482;2022-11-12T09:15:45;101600.56;;;17.81;nan
21153;BME280;10734;44.792;20.482;2022-11-12T09:18:15;101604.16;;;17.95;nan
21153;BME280;10734;44.792;20.482;2022-11-12T09:20:42;101606.41;;;18.03;nan
21153;BME280;10734;44.792;20.482;2022-11-12T09:23:12;101601.53;;;18.51;nan
21153;BME280;10734;44.792;20.482;2022-11-12T09:25:40;101605.41;;;18.76;nan
21153;BME280;10734;44.792;20.482;2022-11-12T09:28:12;101594.78;;;18.85;nan
21153;BME280;10734;44.792;20.482;2022-11-12T09:30:46;101602.44;;;18.93;nan
21153;BME280;10734;44.792;20.482;2022-11-12T09:33:15;101607.78;;;18.95;nan
21153;BME280;10734;44.792;20.482;2022-11-12T09:35:43;101614.44;;;18.90;nan
21153;BME280;10734;44.792;20.482;2022-11-12T09:38:11;101610.41;;;19.23;nan
21153;BME280;10734;44.792;20.482;2022-11-12T09:43:26;101602.97;;;19.25;nan
21153;BME280;10734;44.792;20.482;2022-11-12T09:45:56;101595.66;;;19.66;nan
21153;BME280;10734;44.792;20.482;2022-11-12T09:48:48;101602.22;;;19.63;nan
21153;BME280;10734;44.792;20.482;2022-11-12T09:51:31;101595.03;;;20.13;nan
21153;BME280;10734;44.792;20.482;2022-11-12T09:54:05;101598.31;;;20.81;nan
21153;BME280;10734;44.792;20.482;2022-11-12T09:56:37;101593.25;;;20.50;nan
21153;BME280;10734;44.792;20.482;2022-11-12T09:59:11;101578.47;;;20.90;nan
21153;BME280;10734;44.792;20.482;2022-11-12T10:04:20;101573.91;;;21.01;nan
21153;BME280;10734;44.792;20.482;2022-11-12T10:07:34;101581.69;;;21.43;nan
21153;BME280;10734;44.792;20.482;2022-11-12T10:10:17;101580.50;;;21.47;nan
21153;BME280;10734;44.792;20.482;2022-11-12T10:18:58;101562.66;;;21.99;nan
21153;BME280;10734;44.792;20.482;2022-11-12T10:21:35;101559.28;;;21.84;nan
21153;BME280;10734;44.792;20.482;2022-11-12T10:24:09;101561.56;;;21.20;nan
21153;BME280;10734;44.792;20.482;2022-11-12T10:26:37;101555.13;;;21.67;nan
21153;BME280;10734;44.792;20.482;2022-11-12T10:31:49;101543.88;;;21.59;nan
21153;BME280;10734;44.792;20.482;2022-11-12T10:34:21;101543.94;;;21.70;nan
21153;BME280;10734;44.792;20.482;2022-11-12T10:36:52;101547.91;;;22.00;nan
21153;BME280;10734;44.792;20.482;2022-11-12T10:39:35;101540.72;;;22.33;nan
21153;BME280;10734;44.792;20.482;2022-11-12T10:42:07;101535.34;;;22.42;nan
21153;BME280;10734;44.792;20.482;2022-11-12T10:44:36;101538.91;;;22.65;nan
21153;BME280;10734;44.792;20.482;2022-11-12T10:52:28;101527.41;;;23.57;nan
21153;BME280;10734;44.792;20.482;2022-11-12T10:55:16;101523.84;;;22.92;nan
21153;BME280;10734;44.792;20.482;2022-11-12T10:57:43;101530.41;;;21.45;nan
21153;BME280;10734;44.792;20.482;2022-11-12T11:02:53;101522.63;;;22.85;nan
21153;BME280;10734;44.792;20.482;2022-11-12T11:08:02;101533.50;;;23.60;nan
21153;BME280;10734;44.792;20.482;2022-11-12T11:10:34;101525.78;;;23.12;nan
21153;BME280;10734;44.792;20.482;2022-11-12T11:13:20;101521.09;;;22.92;nan
21153;BME280;10734;44.792;20.482;2022-11-12T11:16:02;101530.66;;;22.77;nan
21153;BME280;10734;44.792;20.482;2022-11-12T11:18:33;101524.38;;;22.97;nan
21153;BME280;10734;44.792;20.482;2022-11-12T11:21:12;101534.69;;;23.79;nan
21153;BME280;10734;44.792;20.482;2022-11-12T11:35:08;101517.47;;;22.48;nan
21153;BME280;10734;44.792;20.482;2022-11-12T11:38:00;101522.59;;;22.53;nan
21153;BME280;10734;44.792;20.482;2022-11-12T11:41:13;101515.03;;;20.96;nan
21153;BME280;10734;44.792;20.482;2022-11-12T12:00:54;101507.22;;;19.54;nan
21153;BME280;10734;44.792;20.482;2022-11-12T12:03:25;101511.72;;;19.02;nan
21153;BME280;10734;44.792;20.482;2022-11-12T12:06:18;101508.09;;;19.80;nan
21153;BME280;10734;44.792;20.482;2022-11-12T12:22:37;101514.44;;;21.03;nan
21153;BME280;10734;44.792;20.482;2022-11-12T12:25:16;101542.16;;;21.58;nan
21153;BME280;10734;44.792;20.482;2022-11-12T12:28:05;101517.03;;;21.05;nan
21153;BME280;10734;44.792;20.482;2022-11-12T12:30:39;101522.19;;;20.12;nan
21153;BME280;10734;44.792;20.482;2022-11-12T12:33:29;101521.91;;;19.13;nan
21153;BME280;10734;44.792;20.482;2022-11-12T12:38:45;101522.75;;;17.61;nan
21153;BME280;10734;44.792;20.482;2022-11-12T12:44:00;101517.75;;;17.83;nan
21153;BME280;10734;44.792;20.482;2022-11-12T12:46:30;101510.97;;;18.73;nan
21153;BME280;10734;44.792;20.482;2022-11-12T12:49:04;101511.47;;;19.96;nan
21153;BME280;10734;44.792;20.482;2022-11-12T12:51:33;101507.50;;;20.63;nan
21153;BME280;10734;44.792;20.482;2022-11-12T12:54:01;101504.59;;;21.12;nan
21153;BME280;10734;44.792;20.482;2022-11-12T12:58:54;101507.84;;;20.82;nan
21153;BME280;10734;44.792;20.482;2022-11-12T13:03:56;101491.50;;;20.69;nan
21153;BME280;10734;44.792;20.482;2022-11-12T13:17:09;101509.09;;;19.01;nan
21153;BME280;10734;44.792;20.482;2022-11-12T13:32:57;101494.84;;;19.35;nan
21153;BME280;10734;44.792;20.482;2022-11-12T13:35:33;101496.94;;;19.96;nan
21153;BME280;10734;44.792;20.482;2022-11-12T13:40:52;101499.19;;;18.73;nan
21153;BME280;10734;44.792;20.482;2022-11-12T13:43:31;101482.31;;;18.66;nan
21153;BME280;10734;44.792;20.482;2022-11-12T13:49:09;101486.75;;;19.21;nan
21153;BME280;10734;44.792;20.482;2022-11-12T13:51:42;101486.00;;;19.57;nan
21153;BME280;10734;44.792;20.482;2022-11-12T13:54:27;101487.41;;;20.01;nan
21153;BME280;10734;44.792;20.482;2022-11-12T13:56:54;101486.69;;;19.74;nan
21153;BME280;10734;44.792;20.482;2022-11-12T13:59:25;101487.22;;;19.79;nan
21153;BME280;10734;44.792;20.482;2022-11-12T14:01:51;101494.88;;;19.87;nan
21153;BME280;10734;44.792;20.482;2022-11-12T14:04:22;101482.00;;;18.98;nan
21153;BME280;10734;44.792;20.482;2022-11-12T14:06:51;101491.13;;;18.57;nan
21153;BME280;10734;44.792;20.482;2022-11-12T14:09:24;101485.41;;;18.06;nan
21153;BME280;10734;44.792;20.482;2022-11-12T14:12:11;101478.38;;;17.44;nan
21153;BME280;10734;44.792;20.482;2022-11-12T14:20:24;101471.47;;;16.48;nan
21153;BME280;10734;44.792;20.482;2022-11-12T14:22:52;101472.97;;;16.22;nan
21153;BME280;10734;44.792;20.482;2022-11-12T14:25:24;101475.78;;;16.05;nan
21153;BME280;10734;44.792;20.482;2022-11-12T14:27:53;101477.31;;;15.77;nan
21153;BME280;10734;44.792;20.482;2022-11-12T14:30:25;101472.94;;;15.57;nan
21153;BME280;10734;44.792;20.482;2022-11-12T14:33:08;101477.13;;;15.47;nan
21153;BME280;10734;44.792;20.482;2022-11-12T14:35:37;101469.06;;;15.46;nan
21153;BME280;10734;44.792;20.482;2022-11-12T14:38:23;101465.78;;;15.56;nan
21153;BME280;10734;44.792;20.482;2022-11-12T14:45:54;101475.09;;;15.00;nan
21153;BME280;10734;44.792;20.482;2022-11-12T14:48:21;101469.41;;;14.87;nan
21153;BME280;10734;44.792;20.482;2022-11-12T14:50:53;101472.22;;;14.69;nan
21153;BME280;10734;44.792;20.482;2022-11-12T14:53:26;101467.91;;;14.46;nan
21153;BME280;10734;44.792;20.482;2022-11-12T14:55:56;101464.06;;;14.32;nan
21153;BME280;10734;44.792;20.482;2022-11-12T14:58:24;101470.25;;;14.17;nan
21153;BME280;10734;44.792;20.482;2022-11-12T15:00:53;101472.66;;;14.04;nan
21153;BME280;10734;44.792;20.482;2022-11-12T15:03:24;101466.94;;;13.91;nan
21153;BME280;10734;44.792;20.482;2022-11-12T15:05:57;101472.00;;;13.80;nan
21153;BME280;10734;44.792;20.482;2022-11-12T15:08:38;101468.84;;;13.70;nan
21153;BME280;10734;44.792;20.482;2022-11-12T15:13:47;101469.75;;;13.51;nan
21153;BME280;10734;44.792;20.482;2022-11-12T15:16:20;101470.16;;;13.41;nan
21153;BME280;10734;44.792;20.482;2022-11-12T15:19:18;101474.31;;;13.30;nan
21153;BME280;10734;44.792;20.482;2022-11-12T15:21:48;101473.16;;;13.15;nan
21153;BME280;10734;44.792;20.482;2022-11-12T15:24:18;101472.69;;;13.05;nan
21153;BME280;10734;44.792;20.482;2022-11-12T15:26:47;101477.63;;;12.95;nan
21153;BME280;10734;44.792;20.482;2022-11-12T15:34:49;101489.63;;;12.68;nan
21153;BME280;10734;44.792;20.482;2022-11-12T15:39:49;101483.22;;;12.48;nan
21153;BME280;10734;44.792;20.482;2022-11-12T15:45:08;101479.22;;;12.37;nan
21153;BME280;10734;44.792;20.482;2022-11-12T15:47:35;101478.63;;;12.28;nan
21153;BME280;10734;44.792;20.482;2022-11-12T15:52:39;101493.63;;;12.14;nan
21153;BME280;10734;44.792;20.482;2022-11-12T15:55:07;101490.31;;;12.07;nan
21153;BME280;10734;44.792;20.482;2022-11-12T15:57:39;101488.03;;;11.96;nan
21153;BME280;10734;44.792;20.482;2022-11-12T16:00:15;101494.34;;;11.95;nan
21153;BME280;10734;44.792;20.482;2022-11-12T16:02:43;101493.84;;;11.86;nan
21153;BME280;10734;44.792;20.482;2022-11-12T16:05:16;101491.28;;;11.81;nan
